Caney, Oklahoma
Current Conditions -  °F | °C
As of 7:55 PM on Monday 20 Oct 2014 (Local Time) from KAQR Reporting Station
Clear Clear  
Wind Chill: 66°   Ceiling: Unl
Heat Index: 66°   Visibility: 10mi
Dew Point: 61°   Wind: 0mph
Humidity: 83%   Direction: NA
Pressure: 30.04"   Gusts: NA
Location:  34.23°N, 96.21°W
Report Text: KAQR 210055Z AUTO 00000KT 10SM CLR 19/16 A3004 RMK AO2
Loading
Personal Weather Stations






























Interactive Weather Map
Tropical Storm Tracking
New forecast layout! Learn more

10-Day Weather Forecast

Advertisements
Track Severe Weather on mobile